sensor_id;sensor_type;location;lat;lon;timestamp;temperature;humidity
25568;DHT22;13455;51.480;7.594;2023-07-28T00:01:26;17.50;99.90
25568;DHT22;13455;51.480;7.594;2023-07-28T00:03:51;17.50;99.90
25568;DHT22;13455;51.480;7.594;2023-07-28T00:06:17;17.50;99.90
25568;DHT22;13455;51.480;7.594;2023-07-28T00:08:42;17.50;99.90
25568;DHT22;13455;51.480;7.594;2023-07-28T00:11:11;17.50;99.90
25568;DHT22;13455;51.480;7.594;2023-07-28T00:13:40;17.50;99.90
25568;DHT22;13455;51.480;7.594;2023-07-28T00:16:06;17.50;99.90
25568;DHT22;13455;51.480;7.594;2023-07-28T00:18:32;17.50;99.90
25568;DHT22;13455;51.480;7.594;2023-07-28T00:20:58;17.40;99.90
25568;DHT22;13455;51.480;7.594;2023-07-28T00:23:24;17.50;99.90
25568;DHT22;13455;51.480;7.594;2023-07-28T00:25:50;17.50;99.90
25568;DHT22;13455;51.480;7.594;2023-07-28T00:28:15;17.40;99.90
25568;DHT22;13455;51.480;7.594;2023-07-28T00:30:41;17.30;99.90
25568;DHT22;13455;51.480;7.594;2023-07-28T00:33:07;17.40;99.90
25568;DHT22;13455;51.480;7.594;2023-07-28T00:35:32;17.50;99.90
25568;DHT22;13455;51.480;7.594;2023-07-28T00:37:58;17.50;99.90
25568;DHT22;13455;51.480;7.594;2023-07-28T00:40:24;17.40;99.90
25568;DHT22;13455;51.480;7.594;2023-07-28T00:42:50;17.50;99.90
25568;DHT22;13455;51.480;7.594;2023-07-28T00:45:15;17.50;99.90
25568;DHT22;13455;51.480;7.594;2023-07-28T00:47:42;17.50;99.90
25568;DHT22;13455;51.480;7.594;2023-07-28T00:50:10;17.40;99.90
25568;DHT22;13455;51.480;7.594;2023-07-28T00:52:37;17.50;99.90
25568;DHT22;13455;51.480;7.594;2023-07-28T00:55:03;17.50;99.90
25568;DHT22;13455;51.480;7.594;2023-07-28T00:57:29;17.50;99.90
25568;DHT22;13455;51.480;7.594;2023-07-28T00:59:54;17.50;99.90
25568;DHT22;13455;51.480;7.594;2023-07-28T01:02:21;17.50;99.90
25568;DHT22;13455;51.480;7.594;2023-07-28T01:04:47;17.50;99.90
25568;DHT22;13455;51.480;7.594;2023-07-28T01:07:30;17.40;99.90
25568;DHT22;13455;51.480;7.594;2023-07-28T01:10:10;17.40;99.90
25568;DHT22;13455;51.480;7.594;2023-07-28T01:12:36;17.40;99.90
25568;DHT22;13455;51.480;7.594;2023-07-28T01:15:02;17.40;99.90
25568;DHT22;13455;51.480;7.594;2023-07-28T01:17:28;17.40;99.90
25568;DHT22;13455;51.480;7.594;2023-07-28T01:19:54;17.40;99.90
25568;DHT22;13455;51.480;7.594;2023-07-28T01:27:29;17.40;99.90
25568;DHT22;13455;51.480;7.594;2023-07-28T01:29:55;17.40;99.90
25568;DHT22;13455;51.480;7.594;2023-07-28T01:32:21;17.40;99.90
25568;DHT22;13455;51.480;7.594;2023-07-28T01:34:46;17.40;99.90
25568;DHT22;13455;51.480;7.594;2023-07-28T01:37:12;17.50;99.90
25568;DHT22;13455;51.480;7.594;2023-07-28T01:39:38;17.40;99.90
25568;DHT22;13455;51.480;7.594;2023-07-28T01:42:04;17.40;99.90
25568;DHT22;13455;51.480;7.594;2023-07-28T01:44:30;17.40;99.90
25568;DHT22;13455;51.480;7.594;2023-07-28T01:46:55;17.40;99.90
25568;DHT22;13455;51.480;7.594;2023-07-28T01:49:21;17.40;99.90
25568;DHT22;13455;51.480;7.594;2023-07-28T01:51:46;17.40;99.90
25568;DHT22;13455;51.480;7.594;2023-07-28T01:54:12;17.40;99.90
25568;DHT22;13455;51.480;7.594;2023-07-28T01:56:37;17.40;99.90
25568;DHT22;13455;51.480;7.594;2023-07-28T01:59:03;17.40;99.90
25568;DHT22;13455;51.480;7.594;2023-07-28T02:01:29;17.40;99.90
25568;DHT22;13455;51.480;7.594;2023-07-28T02:03:54;17.50;99.90
25568;DHT22;13455;51.480;7.594;2023-07-28T02:06:20;17.40;99.90
25568;DHT22;13455;51.480;7.594;2023-07-28T02:08:45;17.40;99.90
25568;DHT22;13455;51.480;7.594;2023-07-28T02:11:11;17.30;99.90
25568;DHT22;13455;51.480;7.594;2023-07-28T02:13:36;17.40;99.90
25568;DHT22;13455;51.480;7.594;2023-07-28T02:16:02;17.40;99.90
25568;DHT22;13455;51.480;7.594;2023-07-28T02:18:28;17.50;99.90
25568;DHT22;13455;51.480;7.594;2023-07-28T02:20:53;17.40;99.90
25568;DHT22;13455;51.480;7.594;2023-07-28T02:23:19;17.40;99.90
25568;DHT22;13455;51.480;7.594;2023-07-28T02:25:45;17.40;99.90
25568;DHT22;13455;51.480;7.594;2023-07-28T02:28:11;17.40;99.90
25568;DHT22;13455;51.480;7.594;2023-07-28T02:30:37;17.40;99.90
25568;DHT22;13455;51.480;7.594;2023-07-28T02:33:03;17.40;99.90
25568;DHT22;13455;51.480;7.594;2023-07-28T02:35:28;17.40;99.90
25568;DHT22;13455;51.480;7.594;2023-07-28T02:37:54;17.40;99.90
25568;DHT22;13455;51.480;7.594;2023-07-28T02:40:20;17.40;99.90
25568;DHT22;13455;51.480;7.594;2023-07-28T02:42:46;17.40;99.90
25568;DHT22;13455;51.480;7.594;2023-07-28T02:45:11;17.40;99.90
25568;DHT22;13455;51.480;7.594;2023-07-28T02:47:37;17.40;99.90
25568;DHT22;13455;51.480;7.594;2023-07-28T02:50:03;17.90;99.90
25568;DHT22;13455;51.480;7.594;2023-07-28T02:52:28;17.40;99.90
25568;DHT22;13455;51.480;7.594;2023-07-28T02:54:55;17.50;99.90
25568;DHT22;13455;51.480;7.594;2023-07-28T02:57:21;17.40;99.90
25568;DHT22;13455;51.480;7.594;2023-07-28T02:59:46;17.40;99.90
25568;DHT22;13455;51.480;7.594;2023-07-28T03:02:12;17.40;99.90
25568;DHT22;13455;51.480;7.594;2023-07-28T03:04:37;17.40;99.90
25568;DHT22;13455;51.480;7.594;2023-07-28T03:07:03;17.40;99.90
25568;DHT22;13455;51.480;7.594;2023-07-28T03:09:29;17.50;99.90
25568;DHT22;13455;51.480;7.594;2023-07-28T03:11:54;17.40;99.90
25568;DHT22;13455;51.480;7.594;2023-07-28T03:14:20;17.50;99.90
25568;DHT22;13455;51.480;7.594;2023-07-28T03:16:46;17.50;99.90
25568;DHT22;13455;51.480;7.594;2023-07-28T03:19:11;17.60;99.90
25568;DHT22;13455;51.480;7.594;2023-07-28T03:21:37;17.50;99.90
25568;DHT22;13455;51.480;7.594;2023-07-28T03:24:02;17.50;99.90
25568;DHT22;13455;51.480;7.594;2023-07-28T03:26:28;17.50;99.90
25568;DHT22;13455;51.480;7.594;2023-07-28T03:28:54;17.60;99.90
25568;DHT22;13455;51.480;7.594;2023-07-28T03:31:19;17.60;99.90
25568;DHT22;13455;51.480;7.594;2023-07-28T03:33:45;17.50;99.90
25568;DHT22;13455;51.480;7.594;2023-07-28T03:36:10;17.60;99.90
25568;DHT22;13455;51.480;7.594;2023-07-28T03:38:36;17.60;99.90
25568;DHT22;13455;51.480;7.594;2023-07-28T03:41:02;17.50;99.90
25568;DHT22;13455;51.480;7.594;2023-07-28T03:43:28;17.50;99.90
25568;DHT22;13455;51.480;7.594;2023-07-28T03:45:53;17.50;99.90
25568;DHT22;13455;51.480;7.594;2023-07-28T03:48:19;18.20;99.90
25568;DHT22;13455;51.480;7.594;2023-07-28T03:50:45;17.50;99.90
25568;DHT22;13455;51.480;7.594;2023-07-28T03:53:10;17.50;99.90
25568;DHT22;13455;51.480;7.594;2023-07-28T03:55:36;18.30;99.90
25568;DHT22;13455;51.480;7.594;2023-07-28T03:58:01;17.50;99.90
25568;DHT22;13455;51.480;7.594;2023-07-28T04:00:29;17.50;99.90
25568;DHT22;13455;51.480;7.594;2023-07-28T04:02:54;17.50;99.90
25568;DHT22;13455;51.480;7.594;2023-07-28T04:05:20;17.50;99.90
25568;DHT22;13455;51.480;7.594;2023-07-28T04:07:45;17.60;99.90
25568;DHT22;13455;51.480;7.594;2023-07-28T04:10:11;17.60;99.90
25568;DHT22;13455;51.480;7.594;2023-07-28T04:12:37;17.60;99.90
25568;DHT22;13455;51.480;7.594;2023-07-28T04:15:02;17.50;99.90
25568;DHT22;13455;51.480;7.594;2023-07-28T04:17:28;17.60;99.90
25568;DHT22;13455;51.480;7.594;2023-07-28T04:19:54;17.60;99.90
25568;DHT22;13455;51.480;7.594;2023-07-28T04:22:19;17.70;99.90
25568;DHT22;13455;51.480;7.594;2023-07-28T04:24:47;17.50;99.90
25568;DHT22;13455;51.480;7.594;2023-07-28T04:27:15;17.60;99.90
25568;DHT22;13455;51.480;7.594;2023-07-28T04:29:41;18.00;99.90
25568;DHT22;13455;51.480;7.594;2023-07-28T04:32:07;17.60;99.90
25568;DHT22;13455;51.480;7.594;2023-07-28T04:34:33;17.60;99.90
25568;DHT22;13455;51.480;7.594;2023-07-28T04:36:59;17.60;99.90
25568;DHT22;13455;51.480;7.594;2023-07-28T04:39:25;17.80;99.90
25568;DHT22;13455;51.480;7.594;2023-07-28T04:41:50;17.70;99.90
25568;DHT22;13455;51.480;7.594;2023-07-28T04:44:17;17.90;99.90
25568;DHT22;13455;51.480;7.594;2023-07-28T04:46:43;18.10;99.90
25568;DHT22;13455;51.480;7.594;2023-07-28T04:49:09;18.30;99.90
25568;DHT22;13455;51.480;7.594;2023-07-28T04:51:34;18.00;99.90
25568;DHT22;13455;51.480;7.594;2023-07-28T04:54:00;18.00;99.90
25568;DHT22;13455;51.480;7.594;2023-07-28T04:56:25;18.00;99.90
25568;DHT22;13455;51.480;7.594;2023-07-28T04:58:51;18.20;99.90
25568;DHT22;13455;51.480;7.594;2023-07-28T05:01:16;18.20;99.90
25568;DHT22;13455;51.480;7.594;2023-07-28T05:03:42;18.20;99.90
25568;DHT22;13455;51.480;7.594;2023-07-28T05:06:08;18.10;99.90
25568;DHT22;13455;51.480;7.594;2023-07-28T05:08:33;18.10;99.90
25568;DHT22;13455;51.480;7.594;2023-07-28T05:10:59;18.10;99.90
25568;DHT22;13455;51.480;7.594;2023-07-28T05:13:25;18.40;99.90
25568;DHT22;13455;51.480;7.594;2023-07-28T05:15:53;18.40;99.90
25568;DHT22;13455;51.480;7.594;2023-07-28T05:18:18;18.20;99.90
25568;DHT22;13455;51.480;7.594;2023-07-28T05:20:44;19.80;99.90
25568;DHT22;13455;51.480;7.594;2023-07-28T05:23:10;18.30;99.90
25568;DHT22;13455;51.480;7.594;2023-07-28T05:25:35;18.20;99.90
25568;DHT22;13455;51.480;7.594;2023-07-28T05:28:01;18.30;99.90
25568;DHT22;13455;51.480;7.594;2023-07-28T05:30:26;18.30;99.90
25568;DHT22;13455;51.480;7.594;2023-07-28T05:32:54;18.40;99.90
25568;DHT22;13455;51.480;7.594;2023-07-28T05:35:19;18.40;99.90
25568;DHT22;13455;51.480;7.594;2023-07-28T05:37:46;18.40;99.90
25568;DHT22;13455;51.480;7.594;2023-07-28T05:40:12;18.50;99.90
25568;DHT22;13455;51.480;7.594;2023-07-28T05:42:38;18.50;99.90
25568;DHT22;13455;51.480;7.594;2023-07-28T05:45:03;18.50;99.90
25568;DHT22;13455;51.480;7.594;2023-07-28T05:47:29;18.50;99.90
25568;DHT22;13455;51.480;7.594;2023-07-28T05:49:55;18.50;99.90
25568;DHT22;13455;51.480;7.594;2023-07-28T05:52:20;18.50;99.90
25568;DHT22;13455;51.480;7.594;2023-07-28T05:54:47;18.50;99.90
25568;DHT22;13455;51.480;7.594;2023-07-28T05:57:13;18.60;99.90
25568;DHT22;13455;51.480;7.594;2023-07-28T05:59:39;18.80;99.90
25568;DHT22;13455;51.480;7.594;2023-07-28T06:02:05;18.60;99.90
25568;DHT22;13455;51.480;7.594;2023-07-28T06:04:31;18.70;99.90
25568;DHT22;13455;51.480;7.594;2023-07-28T06:06:56;19.20;99.90
25568;DHT22;13455;51.480;7.594;2023-07-28T06:09:22;18.70;99.90
25568;DHT22;13455;51.480;7.594;2023-07-28T06:11:47;18.40;99.90
25568;DHT22;13455;51.480;7.594;2023-07-28T06:14:13;18.90;99.90
25568;DHT22;13455;51.480;7.594;2023-07-28T06:16:39;19.00;99.90
25568;DHT22;13455;51.480;7.594;2023-07-28T06:19:05;18.90;99.90
25568;DHT22;13455;51.480;7.594;2023-07-28T06:21:30;19.00;99.90
25568;DHT22;13455;51.480;7.594;2023-07-28T06:23:56;19.00;99.90
25568;DHT22;13455;51.480;7.594;2023-07-28T06:26:21;19.00;99.90
25568;DHT22;13455;51.480;7.594;2023-07-28T06:28:47;19.10;99.90
25568;DHT22;13455;51.480;7.594;2023-07-28T06:31:13;19.10;99.90
25568;DHT22;13455;51.480;7.594;2023-07-28T06:33:38;19.20;99.90
25568;DHT22;13455;51.480;7.594;2023-07-28T06:36:05;19.20;99.90
25568;DHT22;13455;51.480;7.594;2023-07-28T06:38:30;19.40;99.90
25568;DHT22;13455;51.480;7.594;2023-07-28T06:40:56;19.50;99.90
25568;DHT22;13455;51.480;7.594;2023-07-28T06:43:21;19.60;99.90
25568;DHT22;13455;51.480;7.594;2023-07-28T06:45:50;19.70;99.90
25568;DHT22;13455;51.480;7.594;2023-07-28T06:48:16;19.70;99.90
25568;DHT22;13455;51.480;7.594;2023-07-28T06:53:08;19.70;99.90
25568;DHT22;13455;51.480;7.594;2023-07-28T06:55:33;19.80;99.90
25568;DHT22;13455;51.480;7.594;2023-07-28T07:00:25;19.90;99.90
25568;DHT22;13455;51.480;7.594;2023-07-28T07:02:51;20.00;99.90
25568;DHT22;13455;51.480;7.594;2023-07-28T07:05:16;20.00;99.90
25568;DHT22;13455;51.480;7.594;2023-07-28T07:07:42;20.00;99.90
25568;DHT22;13455;51.480;7.594;2023-07-28T07:10:08;20.00;99.90
25568;DHT22;13455;51.480;7.594;2023-07-28T07:12:35;20.00;99.90
25568;DHT22;13455;51.480;7.594;2023-07-28T07:15:01;20.00;99.90
25568;DHT22;13455;51.480;7.594;2023-07-28T07:17:26;20.10;99.90
25568;DHT22;13455;51.480;7.594;2023-07-28T07:19:52;20.10;99.90
25568;DHT22;13455;51.480;7.594;2023-07-28T07:22:18;20.10;99.90
25568;DHT22;13455;51.480;7.594;2023-07-28T07:24:43;20.20;99.90
25568;DHT22;13455;51.480;7.594;2023-07-28T07:27:09;20.30;99.90
25568;DHT22;13455;51.480;7.594;2023-07-28T07:29:37;20.30;99.90
25568;DHT22;13455;51.480;7.594;2023-07-28T07:32:04;20.40;99.90
25568;DHT22;13455;51.480;7.594;2023-07-28T07:34:30;20.40;99.90
25568;DHT22;13455;51.480;7.594;2023-07-28T07:36:55;20.40;99.90
25568;DHT22;13455;51.480;7.594;2023-07-28T07:39:22;20.40;99.90
25568;DHT22;13455;51.480;7.594;2023-07-28T07:41:48;21.00;99.90
25568;DHT22;13455;51.480;7.594;2023-07-28T07:44:13;20.40;99.90
25568;DHT22;13455;51.480;7.594;2023-07-28T07:46:39;20.50;99.90
25568;DHT22;13455;51.480;7.594;2023-07-28T07:49:04;20.50;99.90
25568;DHT22;13455;51.480;7.594;2023-07-28T07:51:31;20.60;99.90
25568;DHT22;13455;51.480;7.594;2023-07-28T07:53:58;20.60;99.90
25568;DHT22;13455;51.480;7.594;2023-07-28T07:56:24;20.60;99.90
25568;DHT22;13455;51.480;7.594;2023-07-28T08:01:16;20.60;99.90
25568;DHT22;13455;51.480;7.594;2023-07-28T08:03:41;20.70;99.90
25568;DHT22;13455;51.480;7.594;2023-07-28T08:06:07;20.80;99.90
25568;DHT22;13455;51.480;7.594;2023-07-28T08:08:34;20.90;99.90
25568;DHT22;13455;51.480;7.594;2023-07-28T08:11:00;20.90;99.90
25568;DHT22;13455;51.480;7.594;2023-07-28T08:13:26;21.00;99.90
25568;DHT22;13455;51.480;7.594;2023-07-28T08:15:51;21.00;99.90
25568;DHT22;13455;51.480;7.594;2023-07-28T08:18:17;21.00;99.90
25568;DHT22;13455;51.480;7.594;2023-07-28T08:20:43;21.10;99.90
25568;DHT22;13455;51.480;7.594;2023-07-28T08:23:08;21.20;99.90
25568;DHT22;13455;51.480;7.594;2023-07-28T08:25:34;21.20;99.90
25568;DHT22;13455;51.480;7.594;2023-07-28T08:28:00;21.20;99.90
25568;DHT22;13455;51.480;7.594;2023-07-28T08:30:26;21.20;99.90
25568;DHT22;13455;51.480;7.594;2023-07-28T08:32:51;21.20;99.90
25568;DHT22;13455;51.480;7.594;2023-07-28T08:37:43;21.30;99.90
25568;DHT22;13455;51.480;7.594;2023-07-28T08:40:10;21.30;99.90
25568;DHT22;13455;51.480;7.594;2023-07-28T08:42:37;21.40;99.90
25568;DHT22;13455;51.480;7.594;2023-07-28T08:45:04;21.30;99.90
25568;DHT22;13455;51.480;7.594;2023-07-28T08:47:31;21.30;99.90
25568;DHT22;13455;51.480;7.594;2023-07-28T08:49:57;21.40;99.90
25568;DHT22;13455;51.480;7.594;2023-07-28T08:52:23;21.40;99.90
25568;DHT22;13455;51.480;7.594;2023-07-28T08:54:49;21.50;99.90
25568;DHT22;13455;51.480;7.594;2023-07-28T08:57:15;21.50;99.90
25568;DHT22;13455;51.480;7.594;2023-07-28T08:59:41;21.60;99.90
25568;DHT22;13455;51.480;7.594;2023-07-28T09:02:14;21.60;99.90
25568;DHT22;13455;51.480;7.594;2023-07-28T09:04:42;21.70;99.90
25568;DHT22;13455;51.480;7.594;2023-07-28T09:07:08;21.70;99.90
25568;DHT22;13455;51.480;7.594;2023-07-28T09:09:34;21.70;99.90
25568;DHT22;13455;51.480;7.594;2023-07-28T09:12:00;21.80;99.90
25568;DHT22;13455;51.480;7.594;2023-07-28T09:14:29;22.00;99.90
25568;DHT22;13455;51.480;7.594;2023-07-28T09:17:06;22.30;99.90
25568;DHT22;13455;51.480;7.594;2023-07-28T09:19:33;22.10;99.90
25568;DHT22;13455;51.480;7.594;2023-07-28T09:26:59;22.30;99.90
25568;DHT22;13455;51.480;7.594;2023-07-28T09:29:26;22.40;99.90
25568;DHT22;13455;51.480;7.594;2023-07-28T09:32:03;22.40;99.90
25568;DHT22;13455;51.480;7.594;2023-07-28T09:34:30;22.50;99.90
25568;DHT22;13455;51.480;7.594;2023-07-28T09:36:59;22.60;99.90
25568;DHT22;13455;51.480;7.594;2023-07-28T09:39:26;22.70;99.90
25568;DHT22;13455;51.480;7.594;2023-07-28T09:41:52;22.80;99.90
25568;DHT22;13455;51.480;7.594;2023-07-28T09:44:18;22.90;99.90
25568;DHT22;13455;51.480;7.594;2023-07-28T09:46:55;23.10;99.90
25568;DHT22;13455;51.480;7.594;2023-07-28T09:52:09;23.20;99.90
25568;DHT22;13455;51.480;7.594;2023-07-28T09:54:39;23.20;99.90
25568;DHT22;13455;51.480;7.594;2023-07-28T09:57:12;23.30;99.90
25568;DHT22;13455;51.480;7.594;2023-07-28T09:59:39;23.40;99.90
25568;DHT22;13455;51.480;7.594;2023-07-28T10:02:05;23.50;99.90
25568;DHT22;13455;51.480;7.594;2023-07-28T10:04:32;23.60;99.90
25568;DHT22;13455;51.480;7.594;2023-07-28T10:06:58;23.90;99.90
25568;DHT22;13455;51.480;7.594;2023-07-28T10:09:26;24.00;99.90
25568;DHT22;13455;51.480;7.594;2023-07-28T10:11:52;24.00;99.90
25568;DHT22;13455;51.480;7.594;2023-07-28T10:14:29;24.00;99.90
25568;DHT22;13455;51.480;7.594;2023-07-28T10:16:57;24.00;99.90
25568;DHT22;13455;51.480;7.594;2023-07-28T10:19:25;24.00;99.90
25568;DHT22;13455;51.480;7.594;2023-07-28T10:21:59;24.00;99.90
25568;DHT22;13455;51.480;7.594;2023-07-28T10:27:35;24.30;99.90
25568;DHT22;13455;51.480;7.594;2023-07-28T10:40:34;24.90;99.90
25568;DHT22;13455;51.480;7.594;2023-07-28T10:43:01;24.90;99.90
25568;DHT22;13455;51.480;7.594;2023-07-28T10:47:56;25.00;99.90
25568;DHT22;13455;51.480;7.594;2023-07-28T10:52:57;25.20;99.90
25568;DHT22;13455;51.480;7.594;2023-07-28T10:55:25;25.30;99.90
25568;DHT22;13455;51.480;7.594;2023-07-28T10:57:52;25.30;99.90
25568;DHT22;13455;51.480;7.594;2023-07-28T11:00:20;25.40;99.90
25568;DHT22;13455;51.480;7.594;2023-07-28T11:02:56;25.60;99.90
25568;DHT22;13455;51.480;7.594;2023-07-28T11:07:54;26.20;99.90
25568;DHT22;13455;51.480;7.594;2023-07-28T11:10:20;26.30;99.90
25568;DHT22;13455;51.480;7.594;2023-07-28T11:12:48;26.40;99.90
25568;DHT22;13455;51.480;7.594;2023-07-28T11:15:15;26.20;99.90
25568;DHT22;13455;51.480;7.594;2023-07-28T11:17:46;26.30;99.90
25568;DHT22;13455;51.480;7.594;2023-07-28T11:20:19;26.20;99.90
25568;DHT22;13455;51.480;7.594;2023-07-28T11:22:46;26.10;99.90
25568;DHT22;13455;51.480;7.594;2023-07-28T11:25:12;26.10;99.90
25568;DHT22;13455;51.480;7.594;2023-07-28T11:27:39;26.00;99.90
25568;DHT22;13455;51.480;7.594;2023-07-28T11:30:07;26.10;99.90
25568;DHT22;13455;51.480;7.594;2023-07-28T11:32:36;26.20;99.90
25568;DHT22;13455;51.480;7.594;2023-07-28T11:35:07;26.40;99.90
25568;DHT22;13455;51.480;7.594;2023-07-28T11:37:35;26.40;99.90
25568;DHT22;13455;51.480;7.594;2023-07-28T11:40:02;26.60;99.90
25568;DHT22;13455;51.480;7.594;2023-07-28T11:42:39;26.90;99.90
25568;DHT22;13455;51.480;7.594;2023-07-28T11:45:06;27.20;99.90
25568;DHT22;13455;51.480;7.594;2023-07-28T11:47:32;27.10;99.90
25568;DHT22;13455;51.480;7.594;2023-07-28T11:49:58;27.20;99.90
25568;DHT22;13455;51.480;7.594;2023-07-28T11:52:28;27.00;99.90
25568;DHT22;13455;51.480;7.594;2023-07-28T11:57:21;27.50;99.90
25568;DHT22;13455;51.480;7.594;2023-07-28T12:02:13;27.90;99.90
25568;DHT22;13455;51.480;7.594;2023-07-28T12:04:40;28.00;99.90
25568;DHT22;13455;51.480;7.594;2023-07-28T12:17:15;28.30;99.90
25568;DHT22;13455;51.480;7.594;2023-07-28T12:22:22;28.20;99.90
25568;DHT22;13455;51.480;7.594;2023-07-28T12:24:47;28.20;99.90
25568;DHT22;13455;51.480;7.594;2023-07-28T12:29:41;28.00;99.90
25568;DHT22;13455;51.480;7.594;2023-07-28T12:32:07;27.90;99.90
25568;DHT22;13455;51.480;7.594;2023-07-28T12:34:33;27.90;99.90
25568;DHT22;13455;51.480;7.594;2023-07-28T12:36:59;28.00;99.90
25568;DHT22;13455;51.480;7.594;2023-07-28T12:39:24;28.00;99.90
25568;DHT22;13455;51.480;7.594;2023-07-28T12:41:50;28.00;99.90
25568;DHT22;13455;51.480;7.594;2023-07-28T12:44:19;28.30;99.90
25568;DHT22;13455;51.480;7.594;2023-07-28T12:46:45;28.30;99.90
25568;DHT22;13455;51.480;7.594;2023-07-28T12:49:11;28.40;99.90
25568;DHT22;13455;51.480;7.594;2023-07-28T12:51:37;28.30;99.90
25568;DHT22;13455;51.480;7.594;2023-07-28T12:54:02;28.30;99.90
25568;DHT22;13455;51.480;7.594;2023-07-28T12:58:54;28.40;99.90
25568;DHT22;13455;51.480;7.594;2023-07-28T13:01:20;28.40;99.90
25568;DHT22;13455;51.480;7.594;2023-07-28T13:03:45;28.40;99.90
25568;DHT22;13455;51.480;7.594;2023-07-28T13:06:11;28.20;99.90
25568;DHT22;13455;51.480;7.594;2023-07-28T13:08:36;28.30;99.90
25568;DHT22;13455;51.480;7.594;2023-07-28T13:11:02;28.70;99.90
25568;DHT22;13455;51.480;7.594;2023-07-28T13:13:28;28.40;99.90
25568;DHT22;13455;51.480;7.594;2023-07-28T13:15:55;28.20;99.90
25568;DHT22;13455;51.480;7.594;2023-07-28T13:18:22;28.30;99.90
25568;DHT22;13455;51.480;7.594;2023-07-28T13:20:47;28.40;99.90
25568;DHT22;13455;51.480;7.594;2023-07-28T13:23:13;28.40;99.90
25568;DHT22;13455;51.480;7.594;2023-07-28T13:25:38;28.40;99.90
25568;DHT22;13455;51.480;7.594;2023-07-28T13:28:06;28.30;99.90
25568;DHT22;13455;51.480;7.594;2023-07-28T13:30:31;28.30;99.90
25568;DHT22;13455;51.480;7.594;2023-07-28T13:32:57;28.10;99.90
25568;DHT22;13455;51.480;7.594;2023-07-28T13:35:23;28.10;99.90
25568;DHT22;13455;51.480;7.594;2023-07-28T13:37:50;28.00;99.90
25568;DHT22;13455;51.480;7.594;2023-07-28T13:40:15;28.10;99.90
25568;DHT22;13455;51.480;7.594;2023-07-28T13:42:41;28.20;99.90
25568;DHT22;13455;51.480;7.594;2023-07-28T13:45:08;28.30;99.90
25568;DHT22;13455;51.480;7.594;2023-07-28T13:47:34;28.40;99.90
25568;DHT22;13455;51.480;7.594;2023-07-28T13:49:59;28.50;99.90
25568;DHT22;13455;51.480;7.594;2023-07-28T13:52:25;28.60;99.90
25568;DHT22;13455;51.480;7.594;2023-07-28T13:54:51;28.80;99.90
25568;DHT22;13455;51.480;7.594;2023-07-28T13:57:16;28.80;99.90
25568;DHT22;13455;51.480;7.594;2023-07-28T14:02:08;29.50;99.90
25568;DHT22;13455;51.480;7.594;2023-07-28T14:04:33;29.50;99.90
25568;DHT22;13455;51.480;7.594;2023-07-28T14:06:59;29.50;99.90
25568;DHT22;13455;51.480;7.594;2023-07-28T14:09:25;29.70;99.90
25568;DHT22;13455;51.480;7.594;2023-07-28T14:11:50;29.80;99.90
25568;DHT22;13455;51.480;7.594;2023-07-28T14:14:16;30.30;99.90
25568;DHT22;13455;51.480;7.594;2023-07-28T14:16:42;30.50;99.90
25568;DHT22;13455;51.480;7.594;2023-07-28T14:19:08;30.70;99.90
25568;DHT22;13455;51.480;7.594;2023-07-28T14:21:33;30.80;99.90
25568;DHT22;13455;51.480;7.594;2023-07-28T14:26:25;31.90;99.90
25568;DHT22;13455;51.480;7.594;2023-07-28T14:31:17;32.00;99.90
25568;DHT22;13455;51.480;7.594;2023-07-28T14:43:27;31.30;99.90
25568;DHT22;13455;51.480;7.594;2023-07-28T14:48:18;30.90;99.90
25568;DHT22;13455;51.480;7.594;2023-07-28T15:00:47;30.10;99.90
25568;DHT22;13455;51.480;7.594;2023-07-28T15:17:49;29.90;99.90
25568;DHT22;13455;51.480;7.594;2023-07-28T15:20:15;29.90;99.90
25568;DHT22;13455;51.480;7.594;2023-07-28T15:22:45;29.60;99.90
25568;DHT22;13455;51.480;7.594;2023-07-28T15:37:22;28.30;99.90
25568;DHT22;13455;51.480;7.594;2023-07-28T15:44:43;27.60;99.90
25568;DHT22;13455;51.480;7.594;2023-07-28T15:47:09;27.60;99.90
25568;DHT22;13455;51.480;7.594;2023-07-28T15:52:00;27.30;99.90
25568;DHT22;13455;51.480;7.594;2023-07-28T15:54:27;27.30;99.90
25568;DHT22;13455;51.480;7.594;2023-07-28T15:56:53;27.30;99.90
25568;DHT22;13455;51.480;7.594;2023-07-28T15:59:18;27.20;99.90
25568;DHT22;13455;51.480;7.594;2023-07-28T16:01:44;27.30;99.90
25568;DHT22;13455;51.480;7.594;2023-07-28T16:04:10;27.20;99.90
25568;DHT22;13455;51.480;7.594;2023-07-28T16:11:29;27.10;99.90
25568;DHT22;13455;51.480;7.594;2023-07-28T16:13:55;27.00;99.90
25568;DHT22;13455;51.480;7.594;2023-07-28T16:23:39;26.90;99.90
25568;DHT22;13455;51.480;7.594;2023-07-28T16:26:04;26.90;99.90
25568;DHT22;13455;51.480;7.594;2023-07-28T16:30:56;26.80;99.90
25568;DHT22;13455;51.480;7.594;2023-07-28T16:33:22;26.80;99.90
25568;DHT22;13455;51.480;7.594;2023-07-28T16:40:40;26.50;99.90
25568;DHT22;13455;51.480;7.594;2023-07-28T16:43:05;26.40;99.90
25568;DHT22;13455;51.480;7.594;2023-07-28T16:47:57;26.30;99.90
25568;DHT22;13455;51.480;7.594;2023-07-28T16:52:48;26.20;99.90
25568;DHT22;13455;51.480;7.594;2023-07-28T16:55:14;26.00;99.90
25568;DHT22;13455;51.480;7.594;2023-07-28T16:57:40;25.90;99.90
25568;DHT22;13455;51.480;7.594;2023-07-28T17:00:06;25.80;99.90
25568;DHT22;13455;51.480;7.594;2023-07-28T17:07:23;25.60;99.90
25568;DHT22;13455;51.480;7.594;2023-07-28T17:14:41;25.20;99.90
25568;DHT22;13455;51.480;7.594;2023-07-28T17:21:59;24.80;99.90
25568;DHT22;13455;51.480;7.594;2023-07-28T17:24:24;24.70;99.90
25568;DHT22;13455;51.480;7.594;2023-07-28T17:29:16;24.50;99.90
25568;DHT22;13455;51.480;7.594;2023-07-28T17:36:34;24.40;99.90
25568;DHT22;13455;51.480;7.594;2023-07-28T17:41:26;24.60;99.90
25568;DHT22;13455;51.480;7.594;2023-07-28T17:46:17;24.20;99.90
25568;DHT22;13455;51.480;7.594;2023-07-28T17:48:43;24.20;99.90
25568;DHT22;13455;51.480;7.594;2023-07-28T17:51:08;24.00;99.90
25568;DHT22;13455;51.480;7.594;2023-07-28T17:53:35;24.10;99.90
25568;DHT22;13455;51.480;7.594;2023-07-28T17:56:01;24.00;99.90
25568;DHT22;13455;51.480;7.594;2023-07-28T17:58:26;24.10;99.90
25568;DHT22;13455;51.480;7.594;2023-07-28T18:00:52;24.00;99.90
25568;DHT22;13455;51.480;7.594;2023-07-28T18:03:17;24.00;99.90
25568;DHT22;13455;51.480;7.594;2023-07-28T18:05:43;24.00;99.90
25568;DHT22;13455;51.480;7.594;2023-07-28T18:08:09;23.90;99.90
25568;DHT22;13455;51.480;7.594;2023-07-28T18:10:41;23.90;99.90
25568;DHT22;13455;51.480;7.594;2023-07-28T18:13:09;23.90;99.90
25568;DHT22;13455;51.480;7.594;2023-07-28T18:18:01;23.80;99.90
25568;DHT22;13455;51.480;7.594;2023-07-28T18:20:27;23.70;99.90
25568;DHT22;13455;51.480;7.594;2023-07-28T18:22:53;23.80;99.90
25568;DHT22;13455;51.480;7.594;2023-07-28T18:25:19;24.40;99.90
25568;DHT22;13455;51.480;7.594;2023-07-28T18:27:45;23.40;99.90